Time;durP1;ratioP1;P1;durP2;ratioP2;P2;SDS_P1;SDS_P2;PMS_P1;PMS_P2;Temp;Humidity;BMP_temperature;BMP_pressure;BME280_temperature;BME280_humidity;BME280_pressure;Samples;Min_cycle;Max_cycle;Signal;HPM_P1;HPM_P2
2022/01/31 00:04:31;;;;;;;32.88;7.53;;;;;;;1.83;81.24;98554.89;4145345;83;21098;-91
2022/01/31 00:10:33;;;;;;;37.67;9.50;;;;;;;1.86;81.17;98552.34;4147469;83;21572;-92
2022/01/31 00:16:34;;;;;;;30.48;7.70;;;;;;;1.84;81.13;98553.22;4144658;83;21555;-91
2022/01/31 00:22:35;;;;;;;32.58;5.95;;;;;;;1.87;81.03;98552.55;4162083;83;21057;-91
2022/01/31 00:28:37;;;;;;;32.42;4.62;;;;;;;1.85;81.03;98555.36;4153988;83;21102;-92
2022/01/31 00:34:39;;;;;;;25.70;6.20;;;;;;;1.74;81.44;98562.27;4148806;83;21042;-92
2022/01/31 00:40:42;;;;;;;31.82;8.38;;;;;;;1.58;81.54;98552.60;4148891;83;21106;-93
2022/01/31 00:46:52;;;;;;;24.25;4.92;;;;;;;1.52;81.63;98549.28;4140053;83;21093;-91
2022/01/31 00:52:49;;;;;;;;;;;;;;;1.53;81.22;98536.59;4159273;83;22001;-91
2022/01/31 00:58:50;;;;;;;20.32;3.85;;;;;;;1.60;80.97;98525.52;4147973;83;20206;-91
2022/01/31 01:04:53;;;;;;;20.05;3.83;;;;;;;1.62;80.26;98525.19;4142065;83;21119;-91
2022/01/31 01:10:54;;;;;;;26.12;3.52;;;;;;;1.67;79.89;98519.61;4144709;83;21086;-91
2022/01/31 01:16:56;;;;;;;17.92;3.35;;;;;;;1.63;79.58;98521.94;4152433;83;22411;-91
2022/01/31 01:22:57;;;;;;;30.23;3.75;;;;;;;1.63;79.43;98521.94;4160865;83;22487;-91
2022/01/31 01:28:59;;;;;;;18.23;3.70;;;;;;;1.66;79.27;98527.45;4160363;84;21549;-90
2022/01/31 01:35:04;;;;;;;17.52;3.00;;;;;;;1.60;79.34;98530.11;4162266;83;21477;-92
2022/01/31 01:41:05;;;;;;;20.12;2.80;;;;;;;1.64;79.03;98547.24;4149803;83;21161;-91
2022/01/31 01:47:07;;;;;;;36.65;8.70;;;;;;;1.64;78.90;98548.59;4160832;82;21707;-91
2022/01/31 01:53:08;;;;;;;22.20;6.92;;;;;;;1.62;78.88;98530.58;4179800;83;21145;-93
2022/01/31 01:59:10;;;;;;;27.00;6.65;;;;;;;1.64;78.49;98546.66;4030565;86;21070;-92
2022/01/31 02:05:13;;;;;;;35.38;10.43;;;;;;;1.64;77.96;98527.01;4044154;86;21123;-93
2022/01/31 02:11:16;;;;;;;24.98;6.75;;;;;;;1.56;78.42;98506.27;4054291;84;22273;-92
2022/01/31 02:17:22;;;;;;;22.42;6.15;;;;;;;1.50;78.65;98499.49;4079054;84;21090;-91
2022/01/31 02:23:27;;;;;;;32.88;8.13;;;;;;;1.47;78.65;98498.80;4031022;86;21764;-93
2022/01/31 02:29:33;;;;;;;33.38;8.13;;;;;;;1.45;78.28;98484.30;4035531;86;21105;-91
2022/01/31 02:35:35;;;;;;;21.73;4.33;;;;;;;1.43;78.32;98468.98;4082770;84;21065;-91
2022/01/31 02:41:45;;;;;;;23.75;5.70;;;;;;;1.40;78.14;98466.95;4073997;84;21137;-93
2022/01/31 02:47:55;;;;;;;29.57;5.53;;;;;;;1.36;78.08;98450.41;3997081;86;21929;-93
2022/01/31 02:53:55;;;;;;;26.00;5.10;;;;;;;1.33;77.81;98437.58;4036623;85;21126;-91
2022/01/31 02:59:57;;;;;;;19.90;4.72;;;;;;;1.25;77.85;98437.08;4050386;86;21164;-92
2022/01/31 03:06:01;;;;;;;22.58;4.58;;;;;;;1.19;77.58;98437.03;4033098;85;27069;-94
2022/01/31 03:12:03;;;;;;;25.50;3.83;;;;;;;1.14;77.79;98442.03;4041562;85;21071;-92
2022/01/31 03:18:06;;;;;;;18.98;3.47;;;;;;;1.08;77.73;98456.05;4050364;84;21127;-92
2022/01/31 03:24:10;;;;;;;17.70;4.28;;;;;;;1.04;77.81;98446.47;4078575;85;21105;-94
2022/01/31 03:30:17;;;;;;;31.20;4.03;;;;;;;1.01;77.55;98436.34;4055139;85;21115;-92
2022/01/31 03:36:19;;;;;;;22.98;4.85;;;;;;;0.91;77.49;98431.89;4051125;85;21105;-92
2022/01/31 03:42:21;;;;;;;20.40;3.98;;;;;;;0.84;77.78;98427.55;4040798;85;21107;-91
2022/01/31 03:48:27;;;;;;;19.52;4.55;;;;;;;0.79;77.83;98416.95;4055932;85;21151;-92
2022/01/31 03:54:29;;;;;;;35.05;5.60;;;;;;;0.76;77.74;98404.14;4018295;85;21161;-92
2022/01/31 04:00:31;;;;;;;17.17;4.45;;;;;;;0.81;77.45;98398.56;4048974;85;21136;-93
2022/01/31 04:06:33;;;;;;;14.93;3.05;;;;;;;0.82;77.68;98402.28;4069509;85;21408;-91
2022/01/31 04:12:34;;;;;;;20.17;3.80;;;;;;;0.83;77.72;98382.30;4103586;83;44030;-91
2022/01/31 04:18:35;;;;;;;22.22;4.50;;;;;;;0.83;77.65;98386.92;4138671;84;21034;-92
2022/01/31 04:24:40;;;;;;;20.37;5.05;;;;;;;0.85;77.86;98387.36;4149677;83;21058;-92
2022/01/31 04:30:46;;;;;;;26.15;5.03;;;;;;;0.85;77.67;98380.08;4152078;83;21113;-92
2022/01/31 04:36:50;;;;;;;15.25;4.00;;;;;;;0.87;77.80;98379.75;4161490;82;21884;-91
2022/01/31 04:42:51;;;;;;;19.20;4.17;;;;;;;0.87;77.54;98369.77;4148635;83;21559;-91
2022/01/31 04:48:54;;;;;;;26.33;5.40;;;;;;;0.88;77.92;98375.38;4092867;85;22116;-91
2022/01/31 04:54:56;;;;;;;24.55;7.00;;;;;;;0.86;78.00;98373.56;4138954;84;21097;-91
2022/01/31 05:00:57;;;;;;;28.12;5.17;;;;;;;0.84;77.82;98356.16;4083807;84;21090;-91
2022/01/31 05:06:58;;;;;;;21.97;4.45;;;;;;;0.78;77.66;98354.77;4138177;83;21098;-93
2022/01/31 05:12:59;;;;;;;25.62;5.60;;;;;;;0.65;77.75;98349.84;4183261;82;21082;-93
2022/01/31 05:19:04;;;;;;;34.78;6.30;;;;;;;0.56;77.86;98347.77;4190254;81;21141;-91
2022/01/31 05:25:06;;;;;;;23.02;5.37;;;;;;;0.49;77.98;98342.09;4196934;81;21073;-91
2022/01/31 05:31:07;;;;;;;23.50;5.28;;;;;;;0.43;77.96;98329.13;4189643;82;21614;-92
2022/01/31 05:37:08;;;;;;;26.50;4.92;;;;;;;0.40;78.02;98316.31;4183861;83;21849;-91
2022/01/31 05:43:11;;;;;;;19.40;4.53;;;;;;;0.33;78.08;98306.63;4187994;82;21125;-91
2022/01/31 05:49:13;;;;;;;30.75;5.45;;;;;;;0.29;78.06;98284.14;4171066;83;21129;-92
2022/01/31 05:55:15;;;;;;;27.35;5.28;;;;;;;0.25;78.16;98263.03;4187373;83;21075;-93
2022/01/31 06:01:18;;;;;;;26.23;5.67;;;;;;;0.28;78.18;98254.31;4173089;81;22087;-92
2022/01/31 06:07:40;;;;;;;28.95;7.20;;;;;;;0.28;78.30;98257.80;4165490;83;21304;-93
2022/01/31 06:13:45;;;;;;;25.77;6.30;;;;;;;0.25;78.38;98253.61;4182086;83;21082;-93
2022/01/31 06:19:45;;;;;;;30.00;6.78;;;;;;;0.08;78.46;98225.45;4176944;83;21062;-92
2022/01/31 06:25:49;;;;;;;27.20;7.80;;;;;;;0.20;78.41;98236.30;4191702;82;21600;-92
2022/01/31 06:31:54;;;;;;;25.45;6.92;;;;;;;0.26;78.34;98222.88;4125008;82;21084;-92
2022/01/31 06:37:56;;;;;;;24.50;5.95;;;;;;;0.26;78.34;98222.88;4182960;83;21201;-94
2022/01/31 06:44:07;;;;;;;20.95;5.42;;;;;;;0.27;78.96;98218.52;4190334;82;21030;-92
2022/01/31 06:50:13;;;;;;;22.47;4.10;;;;;;;0.33;78.81;98209.13;4173245;83;21589;-93
2022/01/31 06:56:18;;;;;;;24.07;6.08;;;;;;;0.44;78.53;98206.86;4207653;82;21105;-91
2022/01/31 07:02:19;;;;;;;21.93;7.08;;;;;;;0.51;78.71;98203.87;4191979;82;21050;-92
2022/01/31 07:08:22;;;;;;;23.80;6.92;;;;;;;0.58;78.57;98196.62;4179448;83;22416;-93
2022/01/31 07:14:30;;;;;;;24.60;6.45;;;;;;;0.66;78.47;98193.08;4151304;83;21417;-92
2022/01/31 07:20:39;;;;;;;30.95;6.95;;;;;;;0.74;78.61;98182.20;4163257;84;21143;-92
2022/01/31 07:26:39;;;;;;;28.42;7.30;;;;;;;0.82;78.29;98188.09;4158379;83;21123;-92
2022/01/31 07:32:42;;;;;;;22.58;6.58;;;;;;;0.91;78.19;98175.89;4208439;82;21487;-92
2022/01/31 07:38:43;;;;;;;32.55;8.43;;;;;;;1.03;78.29;98168.64;4215331;82;21019;-92
2022/01/31 07:44:45;;;;;;;28.20;8.98;;;;;;;1.12;78.23;98161.80;4218053;82;21593;-92
2022/01/31 07:50:47;;;;;;;24.77;6.78;;;;;;;1.15;78.09;98156.53;4181888;82;21071;-93
2022/01/31 07:56:51;;;;;;;25.90;6.42;;;;;;;1.19;77.93;98153.38;4212736;82;21081;-91
2022/01/31 08:02:53;;;;;;;31.33;8.48;;;;;;;1.21;77.75;98159.79;4196704;82;21093;-92
2022/01/31 08:08:55;;;;;;;32.40;8.58;;;;;;;1.22;78.08;98141.93;4193997;81;21070;-91
2022/01/31 08:15:03;;;;;;;39.83;10.32;;;;;;;1.26;77.97;98134.77;4224619;82;21155;-91
2022/01/31 08:21:03;;;;;;;24.10;7.30;;;;;;;1.29;77.97;98123.86;4207681;82;22033;-92
2022/01/31 08:27:11;;;;;;;35.05;10.78;;;;;;;1.28;77.96;98121.75;4193148;82;22561;-91
2022/01/31 08:33:38;;;;;;;29.57;7.90;;;;;;;1.26;77.79;98114.55;4194676;83;21597;-91
2022/01/31 08:39:36;;;;;;;30.30;8.40;;;;;;;1.26;77.77;98107.00;4193778;83;21098;-91
2022/01/31 08:45:38;;;;;;;27.48;7.75;;;;;;;1.29;77.59;98099.59;4225273;82;21106;-94
2022/01/31 08:51:42;;;;;;;27.52;8.48;;;;;;;1.31;77.40;98099.50;4228384;82;21068;-93
2022/01/31 08:57:44;;;;;;;34.83;9.23;;;;;;;1.33;77.70;98081.05;4200845;82;21548;-92
2022/01/31 09:09:54;;;;;;;35.55;9.85;;;;;;;1.49;78.17;98069.83;4196274;82;21094;-93
2022/01/31 09:15:55;;;;;;;48.68;13.65;;;;;;;1.56;77.77;98055.78;4194726;83;21182;-92
2022/01/31 09:21:57;;;;;;;39.48;10.53;;;;;;;1.66;77.82;98051.84;4184515;82;21102;-92
2022/01/31 09:28:00;;;;;;;32.67;11.68;;;;;;;1.74;77.99;98034.75;4193640;82;21153;-92
2022/01/31 09:34:01;;;;;;;42.43;12.35;;;;;;;1.80;77.92;98032.03;4149824;83;21158;-92
2022/01/31 09:40:04;;;;;;;43.65;12.23;;;;;;;1.92;77.88;98022.00;4137432;84;21069;-92
2022/01/31 09:52:10;;;;;;;40.75;14.13;;;;;;;2.14;77.85;97999.88;4207969;81;22229;-92
2022/01/31 09:58:12;;;;;;;50.20;14.05;;;;;;;2.19;78.07;97988.84;4229251;82;21174;-91
2022/01/31 10:04:28;;;;;;;37.38;10.15;;;;;;;2.28;77.80;97967.86;4217757;82;21078;-92
2022/01/31 10:10:30;;;;;;;33.20;10.30;;;;;;;2.33;77.49;97949.27;4213140;81;21624;-91
2022/01/31 10:16:32;;;;;;;56.35;17.00;;;;;;;2.39;76.97;97945.98;4209396;82;21110;-91
2022/01/31 10:22:38;;;;;;;32.42;8.18;;;;;;;2.41;77.37;97930.77;4193055;83;21089;-91
2022/01/31 10:28:45;;;;;;;31.50;9.30;;;;;;;2.43;77.12;97928.48;4195307;82;21086;-91
2022/01/31 10:34:52;;;;;;;31.77;9.93;;;;;;;2.43;77.09;97914.98;4186766;82;21075;-91
2022/01/31 10:53:53;;;;;;;39.70;12.85;;;;;;;2.39;76.85;97897.36;4193833;83;21706;-91
2022/01/31 11:00:00;;;;;;;45.40;13.90;;;;;;;2.40;76.98;97896.77;4169942;83;21557;-91
2022/01/31 11:06:10;;;;;;;38.30;11.88;;;;;;;2.40;77.02;97884.62;4222476;82;21081;-93
2022/01/31 11:12:13;;;;;;;35.75;10.88;;;;;;;2.38;76.73;97889.02;4213578;82;21099;-93
2022/01/31 11:18:17;;;;;;;41.83;11.55;;;;;;;2.38;76.81;97878.22;4189888;82;21648;-91
2022/01/31 11:24:30;;;;;;;35.55;11.25;;;;;;;2.40;77.33;97876.52;4209278;82;21116;-92
2022/01/31 11:30:31;;;;;;;41.08;13.00;;;;;;;2.43;77.04;97873.91;4187210;83;21085;-92
2022/01/31 11:36:39;;;;;;;42.90;11.33;;;;;;;2.44;77.01;97866.05;4186896;82;21133;-92
2022/01/31 11:42:44;;;;;;;45.85;13.53;;;;;;;2.41;76.75;97845.11;4205211;82;21090;-91
2022/01/31 11:48:48;;;;;;;45.00;10.55;;;;;;;2.37;76.66;97852.91;4196152;81;21836;-92
2022/01/31 11:54:54;;;;;;;32.55;9.88;;;;;;;2.36;76.33;97855.40;4209427;81;21130;-91
2022/01/31 12:00:58;;;;;;;36.73;12.00;;;;;;;2.35;76.86;97834.35;4206012;82;21197;-93
2022/01/31 12:07:31;;;;;;;41.30;9.88;;;;;;;2.38;77.11;97836.35;4209594;81;21081;-92
2022/01/31 12:13:48;;;;;;;50.52;15.55;;;;;;;2.39;76.59;97837.14;4159433;81;21117;-91
2022/01/31 12:20:02;;;;;;;46.55;11.38;;;;;;;2.42;76.58;97832.39;4188443;81;21638;-92
2022/01/31 12:25:54;;;;;;;48.75;12.10;;;;;;;2.49;76.68;97812.32;4201036;81;21113;-91
2022/01/31 12:32:19;;;;;;;43.58;13.38;;;;;;;2.52;76.54;97815.08;4137490;84;21135;-92
2022/01/31 12:38:33;;;;;;;44.70;11.57;;;;;;;2.61;76.94;97804.10;4134730;84;21916;-92
2022/01/31 12:44:45;;;;;;;47.67;12.50;;;;;;;2.71;76.20;97790.06;4189091;81;21078;-92
2022/01/31 12:50:56;;;;;;;45.05;9.28;;;;;;;2.77;76.39;97777.84;4212120;82;21055;-92
2022/01/31 12:57:13;;;;;;;36.23;11.63;;;;;;;2.75;76.10;97770.64;4142236;84;21131;-93
2022/01/31 13:03:16;;;;;;;46.48;9.85;;;;;;;2.77;75.67;97770.50;4100553;84;21123;-92
2022/01/31 13:09:37;;;;;;;29.65;7.53;;;;;;;2.77;75.36;97769.73;4202728;82;21143;-94
2022/01/31 13:15:39;;;;;;;36.48;9.18;;;;;;;2.72;74.91;97770.80;4202513;81;21106;-92
2022/01/31 13:21:41;;;;;;;31.85;9.78;;;;;;;2.70;74.97;97773.05;4200233;82;21109;-93
2022/01/31 13:27:47;;;;;;;36.10;8.50;;;;;;;2.68;74.38;97769.91;4165519;83;21150;-92
2022/01/31 13:33:55;;;;;;;36.35;8.75;;;;;;;2.70;75.11;97766.30;4207069;82;21090;-93
2022/01/31 13:40:02;;;;;;;37.15;9.25;;;;;;;2.72;74.94;97762.69;4215428;82;21632;-93
2022/01/31 13:52:20;;;;;;;35.58;9.10;;;;;;;2.68;74.95;97756.41;4209871;81;21606;-92
2022/01/31 13:58:28;;;;;;;39.75;9.80;;;;;;;2.69;75.19;97751.20;4173540;82;21019;-92
2022/01/31 14:04:34;;;;;;;34.23;8.30;;;;;;;2.66;74.87;97742.45;4195612;81;21684;-92
2022/01/31 14:10:37;;;;;;;35.83;9.73;;;;;;;2.64;74.39;97740.70;4216732;82;21154;-92
2022/01/31 14:16:44;;;;;;;32.35;6.90;;;;;;;2.62;74.00;97731.36;4178258;82;21690;-92
2022/01/31 14:23:03;;;;;;;36.25;7.40;;;;;;;2.66;73.99;97729.53;4202520;82;21117;-94
2022/01/31 14:29:10;;;;;;;32.63;7.45;;;;;;;2.63;73.15;97724.25;4191152;82;21058;-92
2022/01/31 14:35:12;;;;;;;34.73;7.50;;;;;;;2.62;73.69;97722.70;4229555;82;21062;-92
2022/01/31 14:41:27;;;;;;;36.80;8.08;;;;;;;2.51;72.78;97713.58;4165183;83;21130;-91
2022/01/31 14:47:28;;;;;;;38.55;8.65;;;;;;;2.50;73.12;97703.12;4210168;81;21346;-91
2022/01/31 14:53:25;;;;;;;35.92;8.13;;;;;;;2.44;72.94;97711.30;4200552;82;21117;-92
2022/01/31 14:59:28;;;;;;;32.17;9.35;;;;;;;2.38;72.76;97716.17;4227664;82;21085;-92
2022/01/31 15:05:30;;;;;;;48.42;9.40;;;;;;;2.34;73.08;97708.57;4227632;82;21893;-92
2022/01/31 15:11:34;;;;;;;36.50;8.63;;;;;;;2.29;72.92;97703.44;4211135;82;21745;-92
2022/01/31 15:17:38;;;;;;;37.88;10.28;;;;;;;2.22;72.85;97714.64;4150902;84;21059;-93
2022/01/31 15:23:43;;;;;;;36.38;10.82;;;;;;;2.16;73.09;97720.10;4137781;84;21099;-92
2022/01/31 15:29:44;;;;;;;39.03;9.90;;;;;;;2.09;73.16;97725.32;4155439;83;21111;-92
2022/01/31 15:35:55;;;;;;;42.65;10.45;;;;;;;2.02;73.14;97739.42;4127904;84;21517;-91
2022/01/31 15:42:00;;;;;;;62.27;11.45;;;;;;;1.99;73.25;97742.83;4109382;84;21159;-92
2022/01/31 15:48:00;;;;;;;50.25;11.08;;;;;;;1.97;73.43;97748.36;4089335;84;21130;-94
2022/01/31 15:54:01;;;;;;;51.53;13.78;;;;;;;1.90;73.36;97746.27;4085106;84;21129;-91
2022/01/31 16:00:09;;;;;;;61.53;17.23;;;;;;;1.85;73.37;97745.17;4157639;83;21641;-93
2022/01/31 16:06:16;;;;;;;40.67;13.43;;;;;;;1.80;73.38;97740.62;4204925;83;21055;-90
2022/01/31 16:12:19;;;;;;;41.58;12.82;;;;;;;1.75;73.56;97744.36;4197782;82;21627;-91
2022/01/31 16:18:21;;;;;;;46.13;13.62;;;;;;;1.73;73.62;97738.52;4217084;82;21562;-93
2022/01/31 16:24:22;;;;;;;43.25;12.13;;;;;;;1.67;73.95;97741.27;4204502;82;21089;-92
2022/01/31 16:30:24;;;;;;;49.18;14.60;;;;;;;1.62;73.88;97750.95;4190269;81;21119;-93
2022/01/31 16:36:25;;;;;;;43.13;13.28;;;;;;;1.61;73.93;97746.70;4192109;83;21181;-92
2022/01/31 16:42:27;;;;;;;59.18;18.57;;;;;;;1.60;74.04;97759.95;4185896;82;21097;-93
2022/01/31 16:48:28;;;;;;;53.33;15.90;;;;;;;1.57;74.07;97759.29;4205198;82;22168;-92
2022/01/31 16:54:30;;;;;;;56.83;16.55;;;;;;;1.53;74.28;97757.84;4189056;82;22155;-92
2022/01/31 17:00:33;;;;;;;53.68;16.12;;;;;;;1.49;74.73;97762.92;4195472;83;21081;-94
2022/01/31 17:06:34;;;;;;;55.30;16.42;;;;;;;1.48;74.66;97757.33;4146029;84;21545;-92
2022/01/31 17:12:36;;;;;;;58.10;16.30;;;;;;;1.45;75.06;97756.11;4061692;86;22708;-92
2022/01/31 17:18:38;;;;;;;45.88;14.25;;;;;;;1.44;74.85;97749.72;4211811;81;22137;-92
2022/01/31 17:24:40;;;;;;;41.25;15.08;;;;;;;1.41;74.89;97757.91;4177141;82;21158;-92
2022/01/31 17:30:41;;;;;;;47.85;14.10;;;;;;;1.35;75.11;97757.16;4187473;82;21161;-92
2022/01/31 17:36:44;;;;;;;52.85;16.23;;;;;;;1.28;75.33;97760.47;4237177;82;22000;-92
2022/01/31 17:42:58;;;;;;;43.15;15.05;;;;;;;1.28;75.40;97763.16;4208627;82;21648;-93
2022/01/31 17:49:06;;;;;;;56.20;17.15;;;;;;;1.17;75.23;97763.98;4171701;82;185302;-93
2022/01/31 17:55:11;;;;;;;56.35;18.95;;;;;;;1.11;75.34;97761.32;4032373;84;10000202;-92
2022/01/31 18:01:12;;;;;;;68.75;20.27;;;;;;;1.01;75.53;97775.27;4194661;83;21311;-93
2022/01/31 18:07:15;;;;;;;63.45;22.27;;;;;;;0.91;75.54;97778.45;4188514;83;21186;-92
2022/01/31 18:13:17;;;;;;;61.65;20.65;;;;;;;0.80;75.62;97782.16;4191069;83;21733;-92
2022/01/31 18:19:22;;;;;;;70.97;27.85;;;;;;;0.62;75.83;97786.80;4194089;82;21150;-94
2022/01/31 18:25:24;;;;;;;87.85;33.28;;;;;;;0.49;75.98;97790.07;4192446;83;21928;-92
2022/01/31 18:31:25;;;;;;;82.33;33.18;;;;;;;0.29;76.28;97793.67;4146071;84;21031;-92
2022/01/31 18:37:32;;;;;;;100.22;38.20;;;;;;;0.08;75.96;97798.95;4174580;83;21110;-92
2022/01/31 18:43:34;;;;;;;89.47;35.98;;;;;;;0.00;76.87;97807.35;4159761;83;21046;-92
2022/01/31 18:49:50;;;;;;;96.20;38.50;;;;;;;-0.06;77.27;97815.39;4084875;85;21106;-92
2022/01/31 18:55:44;;;;;;;94.62;37.33;;;;;;;-0.18;76.75;97813.48;4136365;83;21111;-92
2022/01/31 19:01:51;;;;;;;82.78;32.03;;;;;;;-0.17;77.94;97804.28;4217450;83;21706;-92
2022/01/31 19:07:56;;;;;;;107.67;37.85;;;;;;;-0.17;77.94;97804.28;4220220;81;21532;-93
2022/01/31 19:14:11;;;;;;;115.30;43.40;;;;;;;-0.18;78.46;97809.45;4214565;81;21091;-92
2022/01/31 19:20:08;;;;;;;99.92;34.48;;;;;;;-0.15;79.09;97816.05;4184565;83;21098;-92
2022/01/31 19:26:11;;;;;;;111.23;39.10;;;;;;;-0.15;78.74;97822.78;4192578;83;21058;-94
2022/01/31 19:32:12;;;;;;;120.02;42.20;;;;;;;-0.17;79.18;97832.52;4166823;83;22095;-92
2022/01/31 19:38:24;;;;;;;130.78;44.58;;;;;;;-0.29;79.11;97824.44;4145498;84;21654;-93
2022/01/31 19:44:27;;;;;;;102.00;40.12;;;;;;;-0.46;79.65;97811.72;4140359;83;21121;-92
2022/01/31 19:50:28;;;;;;;102.02;38.90;;;;;;;-0.37;79.97;97830.69;4155327;83;21114;-93
2022/01/31 19:56:29;;;;;;;102.85;37.50;;;;;;;-0.37;79.97;97830.69;4204487;83;21571;-93
2022/01/31 20:02:31;;;;;;;83.15;34.23;;;;;;;-0.39;79.39;97844.21;4155153;84;21082;-93
2022/01/31 20:08:33;;;;;;;100.18;36.63;;;;;;;-0.44;80.75;97845.20;4087708;84;21676;-93
2022/01/31 20:14:34;;;;;;;98.07;40.20;;;;;;;-0.60;80.72;97863.09;4101029;84;21097;-93
2022/01/31 20:20:47;;;;;;;102.82;42.05;;;;;;;-0.60;80.72;97863.09;4191698;83;22114;-93
2022/01/31 20:26:49;;;;;;;107.15;40.20;;;;;;;-0.55;81.22;97873.61;4215098;82;21127;-92
2022/01/31 20:32:50;;;;;;;88.42;35.55;;;;;;;-0.48;81.85;97877.92;4176592;83;21127;-93
2022/01/31 20:39:07;;;;;;;99.35;40.25;;;;;;;-0.43;82.21;97884.98;4185028;83;21084;-93
2022/01/31 20:45:05;;;;;;;107.92;40.58;;;;;;;-0.46;81.17;97889.14;4165218;82;21121;-93
2022/01/31 20:51:06;;;;;;;112.00;43.30;;;;;;;-0.50;82.32;97892.81;4167298;82;21087;-93
2022/01/31 20:57:08;;;;;;;134.82;53.05;;;;;;;-0.42;82.81;97902.69;4037534;83;9999648;-93
2022/01/31 21:03:09;;;;;;;145.68;58.05;;;;;;;-0.39;82.87;97907.40;4164176;83;21992;-93
2022/01/31 21:09:17;;;;;;;123.80;51.35;;;;;;;-0.41;82.13;97905.05;4201322;83;21073;-92
2022/01/31 21:15:17;;;;;;;126.20;49.20;;;;;;;-0.38;82.96;97903.61;4201933;82;21389;-93
2022/01/31 21:21:20;;;;;;;129.75;49.95;;;;;;;-0.35;83.49;97902.41;4209504;82;21057;-93
2022/01/31 21:27:26;;;;;;;136.88;49.93;;;;;;;-0.38;83.12;97899.03;4144705;83;21665;-93
2022/01/31 21:33:35;;;;;;;128.60;50.00;;;;;;;-0.38;83.12;97905.75;4209137;83;21066;-93
2022/01/31 21:39:29;;;;;;;121.20;49.27;;;;;;;-0.46;83.64;97893.17;4166328;84;21108;-93
2022/01/31 21:45:30;;;;;;;138.37;52.75;;;;;;;-0.23;83.84;97935.27;4175178;83;21096;-92
2022/01/31 21:51:32;;;;;;;132.40;48.63;;;;;;;-0.20;84.12;97933.26;4172840;83;21384;-93
2022/01/31 21:57:41;;;;;;;131.95;46.98;;;;;;;-0.17;84.25;97936.08;4150424;83;21083;-93
2022/01/31 22:03:46;;;;;;;129.68;48.33;;;;;;;-0.15;84.24;97951.89;4174240;83;21075;-92
2022/01/31 22:10:01;;;;;;;112.92;46.53;;;;;;;-0.15;84.24;97951.89;4180737;83;21117;-92
2022/01/31 22:15:51;;;;;;;128.93;47.58;;;;;;;-0.16;84.11;97955.70;4207056;81;21041;-92
2022/01/31 22:21:53;;;;;;;122.17;47.62;;;;;;;-0.21;84.35;97983.59;4218513;83;21045;-92
2022/01/31 22:27:54;;;;;;;128.93;46.42;;;;;;;-0.21;84.35;97983.59;4222764;82;21063;-93
2022/01/31 22:34:07;;;;;;;118.85;45.23;;;;;;;-0.18;84.49;97997.73;4208607;82;21105;-93
2022/01/31 22:40:12;;;;;;;128.78;46.92;;;;;;;-0.23;84.54;97989.05;4219688;82;21051;-92
2022/01/31 22:46:14;;;;;;;111.05;44.50;;;;;;;-0.15;84.69;97994.38;4217854;82;21124;-93
2022/01/31 22:52:20;;;;;;;127.35;46.75;;;;;;;-0.20;84.84;97997.27;4198345;81;21017;-93
2022/01/31 22:58:24;;;;;;;121.50;45.12;;;;;;;-0.20;85.19;98010.71;4177637;83;21717;-93
2022/01/31 23:04:41;;;;;;;109.37;42.35;;;;;;;-0.21;85.27;98015.08;4236752;81;21068;-93
2022/01/31 23:10:43;;;;;;;116.90;46.23;;;;;;;-0.34;85.42;97996.73;4234124;83;21058;-95
2022/01/31 23:16:53;;;;;;;122.85;46.75;;;;;;;-0.24;85.60;98016.53;4219457;82;21076;-93
2022/01/31 23:42:10;;;;;;;111.22;44.45;;;;;;;-0.24;85.68;98019.22;4229896;81;21103;-93
2022/01/31 23:54:58;;;;;;;120.13;47.75;;;;;;;-0.47;86.37;98039.45;4205831;82;21090;-92
